Terminal Aerodrome Forecast
Issued by NWS Wilmington, NC

Home | Current Version | Previous Version | Text Only | Print | Product List | Glossary On
Versions: 1 2 3 4 5 6 7 8 9 10 11 12 13 14 15 16 17 18 19 20 21 22 23 24 25 26 27 28
000
FTUS42 KILM 260200 AAA
TAFMYR
TAF AMD
KMYR 260202Z 2602/2624 03007KT 6SM -RA BR SCT004 OVC050
      TEMPO 2602/2604 BKN004
     FM260400 02009KT 3SM RA BR BKN004 OVC015
     FM261200 31013G20KT 6SM -RA BKN007 OVC020
     FM261700 29012KT P6SM BKN020
      AMD LTD TO CLD VIS AND WIND 2604/2611=

USA.gov is the U.S. government's official web portal to all federal, state and local government web resources and services.